• Join FlightAware (Why Join?)
  • Login
  • US Flag 
05:04PM EDT


 

Airport Tracker/Info


-or-


 

Live Flight TrackerFlight Track Log ✈ SKW4728 ✈ 24-Apr-2013 ✈ KSLC - KMFR

Flight Track Log - Related Links

Times and Time Zones

All times are in EDT time to prevent confusion due to time zone crossing. See the SKW4728 flight status page for this flight to view local times or setup timezone preferences in your user account.

Time Position Orientation Groundspeed Altitude Reporting Facility
EDT Latitude Longitude Course Direction KTS MPH feet Rate Location/Type
01:30PM 40.8144 -112.0078 270° West 154 177 5,300  Level Salt Lake Center
01:31PM 40.8322 -112.0444 303° West 197 227 6,600 1,500 Climbing Salt Lake Center
01:32PM 40.8450 -112.0794 296° West 213 245 7,300 2,340 Climbing Salt Lake Center
01:32PM 40.8606 -112.1225 296° West 248 285 9,000 3,360 Climbing Salt Lake Center
01:33PM 40.8413 -112.3492 303° West  Level FlightAware Approximate
01:33PM 40.8817 -112.1828 295° West 255 293 10,800  Level Salt Lake Center
01:33PM 40.8867 -112.2131 282° West 265 305 11,700 2,700 Climbing Salt Lake Center
01:34PM 40.8598 -112.4888 261° West  Level FlightAware Approximate
01:34PM 40.8844 -112.2825 268° West 274 315 13,600  Level Salt Lake Center
01:34PM 40.8819 -112.3222 265° West 282 325 14,400 1,320 Climbing Salt Lake Center
01:35PM 40.8500 -112.6351 270° West  Level FlightAware Approximate
01:35PM 40.8753 -112.3897 263° West 292 336 15,000  Level Salt Lake Center
01:36PM 40.8333 -112.7800 270° West  Level FlightAware Approximate
01:36PM 40.8661 -112.5267 265° West 377 434 15,000  Level Salt Lake Center
01:37PM 40.8547 -112.6764 264° West 407 468 16,500 1,680 Climbing Salt Lake Center
01:38PM 40.8431 -112.8256 264° West 408 470 18,500 2,160 Climbing Salt Lake Center
01:39PM 40.8433 -112.9664 270° West 386 444 21,000 2,340 Climbing Salt Lake Center
01:40PM 40.8436 -113.1269 270° West 366 421 23,400 1,740 Climbing Salt Lake Center
01:41PM 40.8433 -113.2617 270° West 369 425 24,700 1,020 Climbing Salt Lake Center
01:43PM 40.8439 -113.5414 270° West 386 444 26,700 900 Climbing Salt Lake Center
01:44PM 40.8428 -113.6853 269° West 392 451 27,500 720 Climbing Salt Lake Center
01:45PM 40.8411 -113.8328 269° West 401 461 28,200 720 Climbing Salt Lake Center
01:46PM 40.8411 -114.0150 270° West 412 474 29,100 780 Climbing Salt Lake Center
01:47PM 40.8400 -114.1672 269° West 415 478 29,900 720 Climbing Salt Lake Center
01:48PM 40.8394 -114.3183 270° West 413 475 30,700 720 Climbing Salt Lake Center
01:49PM 40.8364 -114.4711 269° West 410 472 31,500 600 Climbing Salt Lake Center
01:50PM 40.8350 -114.6383 269° West 409 471 32,000 240 Climbing Salt Lake Center
01:51PM 40.8297 -114.7853 267° West 417 480 32,000  Level Salt Lake Center
01:52PM 40.8097 -114.9606 261° West 429 494 32,000  Level Salt Lake Center
01:53PM 40.7928 -115.1083 261° West 428 493 32,000  Level Salt Lake Center
01:54PM 40.7761 -115.2556 262° West 425 489 32,000  Level Salt Lake Center
01:55PM 40.7556 -115.4239 261° West 418 481 32,000  Level Salt Lake Center
01:56PM 40.7392 -115.5678 261° West 416 479 32,000  Level Salt Lake Center
01:58PM 40.7189 -115.7344 261° West 413 475 32,000  Level Salt Lake Center
01:59PM 40.7014 -115.8769 261° West 412 474 32,000  Level Salt Lake Center
02:00PM 40.6817 -116.0422 261° West 411 473 32,000  Level Salt Lake Center
02:01PM 40.6642 -116.1828 261° West 408 470 32,000  Level Salt Lake Center
02:02PM 40.6433 -116.3478 261° West 409 471 32,000  Level Salt Lake Center
02:03PM 40.6253 -116.4875 260° West 406 467 32,000  Level Salt Lake Center
02:04PM 40.6050 -116.6494 261° West 405 466 32,000  Level Salt Lake Center
02:05PM 40.5867 -116.7875 260° West 403 464 32,000  Level Salt Lake Center
02:06PM 40.5792 -116.9478 267° West 402 463 32,000  Level Salt Lake Center
02:07PM 40.6136 -117.0786 289° West 400 460 32,000  Level Salt Lake Center
02:08PM 40.6592 -117.2297 292° West 400 460 32,000  Level Salt Lake Center
02:10PM 40.7431 -117.5111 292° West 398 458 32,000  Level Salt Lake Center
02:11PM 40.7803 -117.6411 291° West 397 457 32,000  Level Salt Lake Center
02:12PM 40.8244 -117.7925 291° West 397 457 32,000  Level Salt Lake Center
02:13PM 40.8619 -117.9239 291° West 398 458 32,000  Level Salt Lake Center
02:14PM 40.9056 -118.0781 291° West 400 460 32,000  Level Salt Lake Center
02:15PM 40.9442 -118.2114 291° West 404 465 32,000  Level Salt Lake Center
02:16PM 40.9814 -118.3458 290° West 406 467 32,000  Level Salt Lake Center
02:17PM 41.0256 -118.5019 291° West 407 468 32,000  Level Salt Lake Center
02:18PM 41.0639 -118.6361 291° West 407 468 32,000  Level Salt Lake Center
02:19PM 41.1072 -118.7950 290° West 409 471 32,000  Level Salt Lake Center
02:20PM 41.1444 -118.9308 290° West 409 471 32,000  Level Salt Lake Center
02:21PM 41.1883 -119.0892 290° West 410 472 32,000  Level Salt Lake Center
02:22PM 41.2253 -119.2256 290° West 409 471 32,000  Level Salt Lake Center
02:23PM 41.2689 -119.3831 290° West 408 470 32,000  Level Salt Lake Center
02:24PM 41.2928 -119.4825 288° West 411 473 32,000  Level Seattle Center
02:25PM 41.3319 -119.6222 291° West 405 466 32,000  Level Seattle Center
02:26PM 41.3694 -119.7639 289° West 404 465 32,000  Level Seattle Center
02:27PM 41.4069 -119.9053 290° West 405 466 32,000  Level Seattle Center
02:28PM 41.4467 -120.0458 291° West 406 467 32,000  Level Seattle Center
02:29PM 41.4972 -120.1789 297° West 403 464 32,000  Level Seattle Center
02:30PM 41.5486 -120.3108 298° West 401 461 32,000  Level Seattle Center
02:31PM 41.5986 -120.4425 297° West 399 459 32,000  Level Seattle Center
02:32PM 41.6478 -120.5750 296° West 398 458 32,000  Level Seattle Center
02:33PM 41.6956 -120.7075 296° West 397 457 32,000  Level Seattle Center
02:34PM 41.7469 -120.8400 298° West 400 460 32,000  Level Seattle Center
02:35PM 41.7947 -120.9728 296° West 396 456 32,000  Level Seattle Center
02:36PM 41.8536 -121.1336 296° West 399 459 32,000  Level Seattle Center
02:37PM 41.9022 -121.2675 296° West 400 460 32,000  Level Seattle Center
02:38PM 41.9506 -121.4036 296° West 403 464 32,000 -1,020 Level Seattle Center
02:39PM 41.9956 -121.5294 296° West 378 435 30,000 -2,580 Descending Seattle Center
02:40PM 42.0422 -121.6597 296° West 384 442 26,800 -3,180 Descending Seattle Center
02:41PM 42.0900 -121.7917 296° West 392 451 23,600 -3,000 Descending Seattle Center
02:42PM 42.1350 -121.9186 296° West 385 443 20,700 -3,120 Descending Seattle Center
02:43PM 42.1875 -122.0664 296° West 376 433 17,300 -3,180 Descending Seattle Center
02:44PM 42.2306 -122.1892 295° West 367 422 14,300 -2,580 Descending Seattle Center
02:45PM 42.2728 -122.3106 295° West 359 413 12,100 -1,500 Descending Seattle Center
02:46PM 42.3008 -122.4108 291° West 286 329 11,300 -1,680 Descending Seattle Center
02:47PM 42.3019 -122.5239 271° West 301 346 8,700 -2,220 Descending Seattle Center
02:48PM 42.2897 -122.6325 261° West 296 341 6,800 -1,560 Descending Seattle Center
02:49PM 42.2564 -122.7156 242° Southwest 250 288 5,600 -1,680 Descending Seattle Center
02:50PM 42.2706 -122.7961 283° West 223 257 3,400 -2,220 Descending Seattle Center